sensor_id;sensor_type;location;lat;lon;timestamp;P1;durP1;ratioP1;P2;durP2;ratioP2
16531;SDS011;8378;57.698;11.958;2022-10-30T00:00:25;4.13;;;2.33;;
16531;SDS011;8378;57.698;11.958;2022-10-30T00:02:50;5.07;;;2.22;;
16531;SDS011;8378;57.698;11.958;2022-10-30T00:05:16;4.35;;;2.28;;
16531;SDS011;8378;57.698;11.958;2022-10-30T00:07:42;3.67;;;2.17;;
16531;SDS011;8378;57.698;11.958;2022-10-30T00:10:08;3.55;;;2.17;;
16531;SDS011;8378;57.698;11.958;2022-10-30T00:12:34;3.95;;;2.53;;
16531;SDS011;8378;57.698;11.958;2022-10-30T00:15:00;5.00;;;2.40;;
16531;SDS011;8378;57.698;11.958;2022-10-30T00:17:25;4.05;;;2.00;;
16531;SDS011;8378;57.698;11.958;2022-10-30T00:19:51;5.03;;;2.30;;
16531;SDS011;8378;57.698;11.958;2022-10-30T00:22:17;5.05;;;2.35;;
16531;SDS011;8378;57.698;11.958;2022-10-30T00:24:42;4.55;;;2.40;;
16531;SDS011;8378;57.698;11.958;2022-10-30T00:27:08;5.07;;;2.35;;
16531;SDS011;8378;57.698;11.958;2022-10-30T00:29:33;4.28;;;2.03;;
16531;SDS011;8378;57.698;11.958;2022-10-30T00:31:59;4.60;;;2.30;;
16531;SDS011;8378;57.698;11.958;2022-10-30T00:34:25;6.38;;;2.58;;
16531;SDS011;8378;57.698;11.958;2022-10-30T00:36:50;4.03;;;1.90;;
16531;SDS011;8378;57.698;11.958;2022-10-30T00:39:16;4.20;;;2.50;;
16531;SDS011;8378;57.698;11.958;2022-10-30T00:41:42;4.22;;;2.45;;
16531;SDS011;8378;57.698;11.958;2022-10-30T00:44:30;4.20;;;2.40;;
16531;SDS011;8378;57.698;11.958;2022-10-30T00:46:59;4.63;;;2.40;;
16531;SDS011;8378;57.698;11.958;2022-10-30T00:49:32;4.40;;;2.50;;
16531;SDS011;8378;57.698;11.958;2022-10-30T00:52:02;3.65;;;1.98;;
16531;SDS011;8378;57.698;11.958;2022-10-30T00:54:30;4.72;;;2.08;;
16531;SDS011;8378;57.698;11.958;2022-10-30T00:56:57;5.13;;;2.30;;
16531;SDS011;8378;57.698;11.958;2022-10-30T00:59:26;4.65;;;2.28;;
16531;SDS011;8378;57.698;11.958;2022-10-30T01:01:54;3.75;;;2.22;;
16531;SDS011;8378;57.698;11.958;2022-10-30T01:04:21;6.13;;;2.72;;
16531;SDS011;8378;57.698;11.958;2022-10-30T01:06:48;6.05;;;2.55;;
16531;SDS011;8378;57.698;11.958;2022-10-30T01:09:16;6.03;;;2.70;;
16531;SDS011;8378;57.698;11.958;2022-10-30T01:11:44;5.32;;;2.63;;
16531;SDS011;8378;57.698;11.958;2022-10-30T01:14:10;4.13;;;2.40;;
16531;SDS011;8378;57.698;11.958;2022-10-30T01:16:54;5.63;;;2.50;;
16531;SDS011;8378;57.698;11.958;2022-10-30T01:19:38;4.88;;;2.55;;
16531;SDS011;8378;57.698;11.958;2022-10-30T01:27:41;4.40;;;2.42;;
16531;SDS011;8378;57.698;11.958;2022-10-30T01:33:09;4.85;;;2.22;;
16531;SDS011;8378;57.698;11.958;2022-10-30T01:41:25;4.05;;;2.17;;
16531;SDS011;8378;57.698;11.958;2022-10-30T01:43:52;3.55;;;2.08;;
16531;SDS011;8378;57.698;11.958;2022-10-30T01:54:08;6.32;;;2.30;;
16531;SDS011;8378;57.698;11.958;2022-10-30T01:57:02;4.30;;;2.25;;
16531;SDS011;8378;57.698;11.958;2022-10-30T02:02:11;4.68;;;2.22;;
16531;SDS011;8378;57.698;11.958;2022-10-30T02:04:37;4.75;;;2.28;;
16531;SDS011;8378;57.698;11.958;2022-10-30T02:07:03;4.72;;;2.25;;
16531;SDS011;8378;57.698;11.958;2022-10-30T02:09:29;5.18;;;2.13;;
16531;SDS011;8378;57.698;11.958;2022-10-30T02:11:55;5.03;;;2.50;;
16531;SDS011;8378;57.698;11.958;2022-10-30T02:14:28;4.53;;;2.33;;
16531;SDS011;8378;57.698;11.958;2022-10-30T02:16:59;5.78;;;2.45;;
16531;SDS011;8378;57.698;11.958;2022-10-30T02:19:26;5.00;;;2.40;;
16531;SDS011;8378;57.698;11.958;2022-10-30T02:21:52;6.53;;;2.63;;
16531;SDS011;8378;57.698;11.958;2022-10-30T02:24:18;3.72;;;2.05;;
16531;SDS011;8378;57.698;11.958;2022-10-30T02:26:43;5.93;;;2.50;;
16531;SDS011;8378;57.698;11.958;2022-10-30T02:29:09;4.82;;;2.17;;
16531;SDS011;8378;57.698;11.958;2022-10-30T02:31:35;3.25;;;1.90;;
16531;SDS011;8378;57.698;11.958;2022-10-30T02:34:01;3.65;;;2.22;;
16531;SDS011;8378;57.698;11.958;2022-10-30T02:36:26;3.38;;;1.90;;
16531;SDS011;8378;57.698;11.958;2022-10-30T02:38:52;4.35;;;2.22;;
16531;SDS011;8378;57.698;11.958;2022-10-30T02:41:19;5.00;;;2.30;;
16531;SDS011;8378;57.698;11.958;2022-10-30T02:43:45;3.92;;;2.00;;
16531;SDS011;8378;57.698;11.958;2022-10-30T02:46:11;4.38;;;2.20;;
16531;SDS011;8378;57.698;11.958;2022-10-30T02:48:36;7.82;;;2.63;;
16531;SDS011;8378;57.698;11.958;2022-10-30T02:51:02;3.85;;;1.90;;
16531;SDS011;8378;57.698;11.958;2022-10-30T02:53:28;4.43;;;2.15;;
16531;SDS011;8378;57.698;11.958;2022-10-30T02:55:55;4.88;;;2.45;;
16531;SDS011;8378;57.698;11.958;2022-10-30T02:58:20;4.40;;;2.00;;
16531;SDS011;8378;57.698;11.958;2022-10-30T03:00:46;4.20;;;2.15;;
16531;SDS011;8378;57.698;11.958;2022-10-30T03:03:11;4.80;;;2.13;;
16531;SDS011;8378;57.698;11.958;2022-10-30T03:05:37;6.03;;;2.40;;
16531;SDS011;8378;57.698;11.958;2022-10-30T03:08:02;4.38;;;2.38;;
16531;SDS011;8378;57.698;11.958;2022-10-30T03:10:28;4.43;;;2.00;;
16531;SDS011;8378;57.698;11.958;2022-10-30T03:12:54;4.60;;;2.30;;
16531;SDS011;8378;57.698;11.958;2022-10-30T03:15:19;4.60;;;2.00;;
16531;SDS011;8378;57.698;11.958;2022-10-30T03:17:45;4.70;;;2.30;;
16531;SDS011;8378;57.698;11.958;2022-10-30T03:20:11;4.63;;;2.22;;
16531;SDS011;8378;57.698;11.958;2022-10-30T03:22:36;4.13;;;2.00;;
16531;SDS011;8378;57.698;11.958;2022-10-30T03:25:02;5.28;;;2.05;;
16531;SDS011;8378;57.698;11.958;2022-10-30T03:27:28;4.55;;;2.20;;
16531;SDS011;8378;57.698;11.958;2022-10-30T03:29:54;3.80;;;2.08;;
16531;SDS011;8378;57.698;11.958;2022-10-30T03:32:19;4.88;;;2.28;;
16531;SDS011;8378;57.698;11.958;2022-10-30T03:34:45;4.63;;;2.40;;
16531;SDS011;8378;57.698;11.958;2022-10-30T03:37:10;4.82;;;2.35;;
16531;SDS011;8378;57.698;11.958;2022-10-30T03:39:36;4.53;;;2.20;;
16531;SDS011;8378;57.698;11.958;2022-10-30T03:42:01;3.92;;;2.10;;
16531;SDS011;8378;57.698;11.958;2022-10-30T03:44:27;4.60;;;2.10;;
16531;SDS011;8378;57.698;11.958;2022-10-30T03:46:53;4.80;;;2.20;;
16531;SDS011;8378;57.698;11.958;2022-10-30T03:49:18;3.78;;;2.20;;
16531;SDS011;8378;57.698;11.958;2022-10-30T03:51:44;5.05;;;2.10;;
16531;SDS011;8378;57.698;11.958;2022-10-30T03:54:09;4.40;;;2.08;;
16531;SDS011;8378;57.698;11.958;2022-10-30T03:56:35;3.17;;;1.90;;
16531;SDS011;8378;57.698;11.958;2022-10-30T03:59:01;4.03;;;2.00;;
16531;SDS011;8378;57.698;11.958;2022-10-30T04:01:26;5.25;;;2.60;;
16531;SDS011;8378;57.698;11.958;2022-10-30T04:03:52;5.32;;;2.30;;
16531;SDS011;8378;57.698;11.958;2022-10-30T04:06:17;6.60;;;2.40;;
16531;SDS011;8378;57.698;11.958;2022-10-30T04:08:43;4.13;;;2.17;;
16531;SDS011;8378;57.698;11.958;2022-10-30T04:11:09;4.50;;;2.28;;
16531;SDS011;8378;57.698;11.958;2022-10-30T04:13:35;4.32;;;2.22;;
16531;SDS011;8378;57.698;11.958;2022-10-30T04:16:01;4.25;;;2.20;;
16531;SDS011;8378;57.698;11.958;2022-10-30T04:18:27;4.68;;;2.20;;
16531;SDS011;8378;57.698;11.958;2022-10-30T04:20:52;3.40;;;2.00;;
16531;SDS011;8378;57.698;11.958;2022-10-30T04:23:19;4.90;;;2.03;;
16531;SDS011;8378;57.698;11.958;2022-10-30T04:25:46;4.18;;;2.00;;
16531;SDS011;8378;57.698;11.958;2022-10-30T04:28:12;4.95;;;1.98;;
16531;SDS011;8378;57.698;11.958;2022-10-30T04:30:38;4.25;;;1.90;;
16531;SDS011;8378;57.698;11.958;2022-10-30T04:33:05;3.10;;;1.85;;
16531;SDS011;8378;57.698;11.958;2022-10-30T04:35:35;4.13;;;1.90;;
16531;SDS011;8378;57.698;11.958;2022-10-30T04:38:02;3.92;;;2.00;;
16531;SDS011;8378;57.698;11.958;2022-10-30T04:40:30;4.05;;;2.00;;
16531;SDS011;8378;57.698;11.958;2022-10-30T04:42:58;3.58;;;1.75;;
16531;SDS011;8378;57.698;11.958;2022-10-30T04:45:24;4.03;;;2.08;;
16531;SDS011;8378;57.698;11.958;2022-10-30T04:47:50;5.00;;;2.15;;
16531;SDS011;8378;57.698;11.958;2022-10-30T04:50:16;4.00;;;2.03;;
16531;SDS011;8378;57.698;11.958;2022-10-30T04:52:42;4.20;;;2.20;;
16531;SDS011;8378;57.698;11.958;2022-10-30T04:55:08;4.20;;;1.80;;
16531;SDS011;8378;57.698;11.958;2022-10-30T04:57:34;5.07;;;2.20;;
16531;SDS011;8378;57.698;11.958;2022-10-30T05:00:02;3.45;;;2.10;;
16531;SDS011;8378;57.698;11.958;2022-10-30T05:02:28;4.88;;;2.28;;
16531;SDS011;8378;57.698;11.958;2022-10-30T05:04:54;3.58;;;2.08;;
16531;SDS011;8378;57.698;11.958;2022-10-30T05:07:19;3.85;;;2.03;;
16531;SDS011;8378;57.698;11.958;2022-10-30T05:09:45;4.85;;;2.20;;
16531;SDS011;8378;57.698;11.958;2022-10-30T05:12:11;5.30;;;2.40;;
16531;SDS011;8378;57.698;11.958;2022-10-30T05:14:36;4.72;;;2.10;;
16531;SDS011;8378;57.698;11.958;2022-10-30T05:17:02;3.67;;;1.90;;
16531;SDS011;8378;57.698;11.958;2022-10-30T05:19:27;4.55;;;2.10;;
16531;SDS011;8378;57.698;11.958;2022-10-30T05:21:53;4.55;;;2.00;;
16531;SDS011;8378;57.698;11.958;2022-10-30T05:24:19;3.92;;;1.95;;
16531;SDS011;8378;57.698;11.958;2022-10-30T05:26:44;3.88;;;1.88;;
16531;SDS011;8378;57.698;11.958;2022-10-30T05:29:10;5.63;;;2.20;;
16531;SDS011;8378;57.698;11.958;2022-10-30T05:31:36;3.38;;;1.90;;
16531;SDS011;8378;57.698;11.958;2022-10-30T05:34:02;3.92;;;2.10;;
16531;SDS011;8378;57.698;11.958;2022-10-30T05:36:27;4.07;;;1.85;;
16531;SDS011;8378;57.698;11.958;2022-10-30T05:38:53;3.55;;;1.90;;
16531;SDS011;8378;57.698;11.958;2022-10-30T05:41:19;3.17;;;1.70;;
16531;SDS011;8378;57.698;11.958;2022-10-30T05:43:44;4.85;;;2.10;;
16531;SDS011;8378;57.698;11.958;2022-10-30T05:46:10;7.13;;;2.20;;
16531;SDS011;8378;57.698;11.958;2022-10-30T05:48:35;3.28;;;1.90;;
16531;SDS011;8378;57.698;11.958;2022-10-30T05:51:01;4.47;;;1.95;;
16531;SDS011;8378;57.698;11.958;2022-10-30T05:53:28;3.70;;;1.90;;
16531;SDS011;8378;57.698;11.958;2022-10-30T05:55:57;3.67;;;2.00;;
16531;SDS011;8378;57.698;11.958;2022-10-30T05:58:23;5.07;;;2.33;;
16531;SDS011;8378;57.698;11.958;2022-10-30T06:00:49;3.38;;;1.90;;
16531;SDS011;8378;57.698;11.958;2022-10-30T06:03:15;4.35;;;1.92;;
16531;SDS011;8378;57.698;11.958;2022-10-30T06:05:43;4.97;;;1.90;;
16531;SDS011;8378;57.698;11.958;2022-10-30T06:08:10;3.70;;;2.03;;
16531;SDS011;8378;57.698;11.958;2022-10-30T06:10:35;5.30;;;2.35;;
16531;SDS011;8378;57.698;11.958;2022-10-30T06:13:02;3.03;;;1.70;;
16531;SDS011;8378;57.698;11.958;2022-10-30T06:15:29;3.30;;;1.98;;
16531;SDS011;8378;57.698;11.958;2022-10-30T06:17:56;4.90;;;2.33;;
16531;SDS011;8378;57.698;11.958;2022-10-30T06:20:22;4.72;;;2.20;;
16531;SDS011;8378;57.698;11.958;2022-10-30T06:25:21;4.68;;;2.17;;
16531;SDS011;8378;57.698;11.958;2022-10-30T06:27:47;5.57;;;2.28;;
16531;SDS011;8378;57.698;11.958;2022-10-30T06:30:12;4.57;;;2.08;;
16531;SDS011;8378;57.698;11.958;2022-10-30T06:32:38;4.18;;;2.17;;
16531;SDS011;8378;57.698;11.958;2022-10-30T06:35:04;4.25;;;2.13;;
16531;SDS011;8378;57.698;11.958;2022-10-30T06:37:29;4.32;;;1.85;;
16531;SDS011;8378;57.698;11.958;2022-10-30T06:39:55;3.88;;;2.17;;
16531;SDS011;8378;57.698;11.958;2022-10-30T06:42:20;3.30;;;2.00;;
16531;SDS011;8378;57.698;11.958;2022-10-30T06:44:47;5.88;;;2.20;;
16531;SDS011;8378;57.698;11.958;2022-10-30T06:47:13;3.17;;;1.90;;
16531;SDS011;8378;57.698;11.958;2022-10-30T06:49:39;2.80;;;1.77;;
16531;SDS011;8378;57.698;11.958;2022-10-30T06:52:05;4.25;;;2.10;;
16531;SDS011;8378;57.698;11.958;2022-10-30T06:54:30;4.57;;;1.92;;
16531;SDS011;8378;57.698;11.958;2022-10-30T06:56:56;3.50;;;1.83;;
16531;SDS011;8378;57.698;11.958;2022-10-30T06:59:21;4.13;;;2.00;;
16531;SDS011;8378;57.698;11.958;2022-10-30T07:01:47;3.92;;;2.08;;
16531;SDS011;8378;57.698;11.958;2022-10-30T07:04:13;3.65;;;1.90;;
16531;SDS011;8378;57.698;11.958;2022-10-30T07:06:38;2.90;;;1.90;;
16531;SDS011;8378;57.698;11.958;2022-10-30T07:09:04;4.43;;;2.10;;
16531;SDS011;8378;57.698;11.958;2022-10-30T07:11:29;3.42;;;2.03;;
16531;SDS011;8378;57.698;11.958;2022-10-30T07:13:55;3.88;;;2.22;;
16531;SDS011;8378;57.698;11.958;2022-10-30T07:16:21;4.63;;;1.85;;
16531;SDS011;8378;57.698;11.958;2022-10-30T07:18:46;3.97;;;1.73;;
16531;SDS011;8378;57.698;11.958;2022-10-30T07:21:12;3.60;;;2.00;;
16531;SDS011;8378;57.698;11.958;2022-10-30T07:23:37;3.67;;;1.95;;
16531;SDS011;8378;57.698;11.958;2022-10-30T07:26:03;3.92;;;2.05;;
16531;SDS011;8378;57.698;11.958;2022-10-30T07:28:29;4.38;;;1.90;;
16531;SDS011;8378;57.698;11.958;2022-10-30T07:30:56;4.90;;;2.00;;
16531;SDS011;8378;57.698;11.958;2022-10-30T07:33:22;4.07;;;2.00;;
16531;SDS011;8378;57.698;11.958;2022-10-30T07:35:48;4.50;;;2.00;;
16531;SDS011;8378;57.698;11.958;2022-10-30T07:38:13;3.60;;;1.88;;
16531;SDS011;8378;57.698;11.958;2022-10-30T07:40:41;4.40;;;2.20;;
16531;SDS011;8378;57.698;11.958;2022-10-30T07:43:07;3.95;;;2.13;;
16531;SDS011;8378;57.698;11.958;2022-10-30T07:45:37;4.65;;;2.25;;
16531;SDS011;8378;57.698;11.958;2022-10-30T07:48:03;3.40;;;1.85;;
16531;SDS011;8378;57.698;11.958;2022-10-30T07:50:29;3.83;;;1.88;;
16531;SDS011;8378;57.698;11.958;2022-10-30T07:52:55;4.50;;;1.98;;
16531;SDS011;8378;57.698;11.958;2022-10-30T07:55:20;3.45;;;2.25;;
16531;SDS011;8378;57.698;11.958;2022-10-30T07:57:46;3.15;;;2.05;;
16531;SDS011;8378;57.698;11.958;2022-10-30T08:00:13;3.85;;;1.98;;
16531;SDS011;8378;57.698;11.958;2022-10-30T08:02:40;4.88;;;1.92;;
16531;SDS011;8378;57.698;11.958;2022-10-30T08:05:06;3.72;;;1.98;;
16531;SDS011;8378;57.698;11.958;2022-10-30T08:07:34;3.47;;;1.80;;
16531;SDS011;8378;57.698;11.958;2022-10-30T08:10:01;5.20;;;1.88;;
16531;SDS011;8378;57.698;11.958;2022-10-30T08:12:26;4.30;;;1.90;;
16531;SDS011;8378;57.698;11.958;2022-10-30T08:14:52;4.78;;;2.22;;
16531;SDS011;8378;57.698;11.958;2022-10-30T08:17:18;3.70;;;2.20;;
16531;SDS011;8378;57.698;11.958;2022-10-30T08:19:44;4.43;;;2.00;;
16531;SDS011;8378;57.698;11.958;2022-10-30T08:22:10;3.97;;;2.17;;
16531;SDS011;8378;57.698;11.958;2022-10-30T08:24:36;5.82;;;2.35;;
16531;SDS011;8378;57.698;11.958;2022-10-30T08:27:02;5.38;;;2.10;;
16531;SDS011;8378;57.698;11.958;2022-10-30T08:29:28;4.78;;;2.08;;
16531;SDS011;8378;57.698;11.958;2022-10-30T08:31:54;5.68;;;2.20;;
16531;SDS011;8378;57.698;11.958;2022-10-30T08:34:19;5.13;;;2.10;;
16531;SDS011;8378;57.698;11.958;2022-10-30T08:36:48;4.82;;;2.25;;
16531;SDS011;8378;57.698;11.958;2022-10-30T08:39:15;3.78;;;2.47;;
16531;SDS011;8378;57.698;11.958;2022-10-30T08:41:41;5.05;;;2.30;;
16531;SDS011;8378;57.698;11.958;2022-10-30T08:44:06;5.38;;;2.50;;
16531;SDS011;8378;57.698;11.958;2022-10-30T08:46:32;4.88;;;2.10;;
16531;SDS011;8378;57.698;11.958;2022-10-30T08:48:57;3.45;;;2.42;;
16531;SDS011;8378;57.698;11.958;2022-10-30T08:51:23;5.47;;;2.50;;
16531;SDS011;8378;57.698;11.958;2022-10-30T08:53:49;5.70;;;2.47;;
16531;SDS011;8378;57.698;11.958;2022-10-30T08:56:15;5.63;;;2.67;;
16531;SDS011;8378;57.698;11.958;2022-10-30T08:58:41;5.95;;;2.45;;
16531;SDS011;8378;57.698;11.958;2022-10-30T09:01:07;5.80;;;2.70;;
16531;SDS011;8378;57.698;11.958;2022-10-30T09:03:32;5.85;;;2.58;;
16531;SDS011;8378;57.698;11.958;2022-10-30T09:05:58;3.90;;;2.30;;
16531;SDS011;8378;57.698;11.958;2022-10-30T09:08:27;5.45;;;2.35;;
16531;SDS011;8378;57.698;11.958;2022-10-30T09:10:53;3.90;;;2.25;;
16531;SDS011;8378;57.698;11.958;2022-10-30T09:13:20;6.22;;;2.60;;
16531;SDS011;8378;57.698;11.958;2022-10-30T09:15:45;5.75;;;2.80;;
16531;SDS011;8378;57.698;11.958;2022-10-30T09:18:11;6.38;;;2.95;;
16531;SDS011;8378;57.698;11.958;2022-10-30T09:20:36;5.40;;;2.60;;
16531;SDS011;8378;57.698;11.958;2022-10-30T09:23:02;6.07;;;2.90;;
16531;SDS011;8378;57.698;11.958;2022-10-30T09:25:28;5.68;;;2.85;;
16531;SDS011;8378;57.698;11.958;2022-10-30T09:27:53;5.75;;;2.83;;
16531;SDS011;8378;57.698;11.958;2022-10-30T09:30:19;6.75;;;3.20;;
16531;SDS011;8378;57.698;11.958;2022-10-30T09:32:45;6.93;;;3.33;;
16531;SDS011;8378;57.698;11.958;2022-10-30T09:35:17;5.50;;;3.10;;
16531;SDS011;8378;57.698;11.958;2022-10-30T09:37:43;8.75;;;3.47;;
16531;SDS011;8378;57.698;11.958;2022-10-30T09:40:09;6.03;;;3.20;;
16531;SDS011;8378;57.698;11.958;2022-10-30T09:42:43;7.05;;;3.53;;
16531;SDS011;8378;57.698;11.958;2022-10-30T09:53:54;7.70;;;3.35;;
16531;SDS011;8378;57.698;11.958;2022-10-30T09:56:40;8.85;;;3.47;;
16531;SDS011;8378;57.698;11.958;2022-10-30T09:59:33;17.40;;;3.92;;
16531;SDS011;8378;57.698;11.958;2022-10-30T10:04:59;8.30;;;3.60;;
16531;SDS011;8378;57.698;11.958;2022-10-30T10:07:36;6.65;;;3.03;;
16531;SDS011;8378;57.698;11.958;2022-10-30T10:10:08;6.55;;;2.88;;
16531;SDS011;8378;57.698;11.958;2022-10-30T10:12:41;5.38;;;2.88;;
16531;SDS011;8378;57.698;11.958;2022-10-30T10:15:28;8.65;;;2.85;;
16531;SDS011;8378;57.698;11.958;2022-10-30T10:18:21;7.82;;;3.00;;
16531;SDS011;8378;57.698;11.958;2022-10-30T10:20:51;7.63;;;2.92;;
16531;SDS011;8378;57.698;11.958;2022-10-30T10:25:57;5.47;;;3.05;;
16531;SDS011;8378;57.698;11.958;2022-10-30T10:28:51;5.72;;;2.88;;
16531;SDS011;8378;57.698;11.958;2022-10-30T10:34:13;4.90;;;2.58;;
16531;SDS011;8378;57.698;11.958;2022-10-30T10:37:01;6.28;;;2.72;;
16531;SDS011;8378;57.698;11.958;2022-10-30T10:39:39;10.80;;;2.83;;
16531;SDS011;8378;57.698;11.958;2022-10-30T10:42:19;7.22;;;2.60;;
16531;SDS011;8378;57.698;11.958;2022-10-30T10:50:31;5.50;;;2.70;;
16531;SDS011;8378;57.698;11.958;2022-10-30T10:53:13;6.35;;;2.50;;
16531;SDS011;8378;57.698;11.958;2022-10-30T10:55:55;7.60;;;2.50;;
16531;SDS011;8378;57.698;11.958;2022-10-30T11:01:19;4.93;;;2.33;;
16531;SDS011;8378;57.698;11.958;2022-10-30T11:04:02;7.10;;;2.80;;
16531;SDS011;8378;57.698;11.958;2022-10-30T11:06:50;6.38;;;2.90;;
16531;SDS011;8378;57.698;11.958;2022-10-30T11:09:19;6.82;;;2.72;;
16531;SDS011;8378;57.698;11.958;2022-10-30T11:11:52;7.25;;;2.45;;
16531;SDS011;8378;57.698;11.958;2022-10-30T11:14:23;5.40;;;2.65;;
16531;SDS011;8378;57.698;11.958;2022-10-30T11:19:44;5.72;;;2.50;;
16531;SDS011;8378;57.698;11.958;2022-10-30T11:22:26;7.68;;;2.58;;
16531;SDS011;8378;57.698;11.958;2022-10-30T11:24:53;6.78;;;2.50;;
16531;SDS011;8378;57.698;11.958;2022-10-30T11:29:55;4.93;;;2.30;;
16531;SDS011;8378;57.698;11.958;2022-10-30T11:32:27;6.50;;;2.40;;
16531;SDS011;8378;57.698;11.958;2022-10-30T11:35:02;4.95;;;2.42;;
16531;SDS011;8378;57.698;11.958;2022-10-30T11:37:34;5.85;;;2.60;;
16531;SDS011;8378;57.698;11.958;2022-10-30T11:40:03;5.68;;;2.45;;
16531;SDS011;8378;57.698;11.958;2022-10-30T11:42:38;4.90;;;2.40;;
16531;SDS011;8378;57.698;11.958;2022-10-30T11:45:12;8.82;;;2.50;;
16531;SDS011;8378;57.698;11.958;2022-10-30T11:47:41;5.88;;;2.53;;
16531;SDS011;8378;57.698;11.958;2022-10-30T11:50:17;8.20;;;2.38;;
16531;SDS011;8378;57.698;11.958;2022-10-30T11:52:45;4.10;;;2.05;;
16531;SDS011;8378;57.698;11.958;2022-10-30T11:55:26;8.35;;;2.15;;
16531;SDS011;8378;57.698;11.958;2022-10-30T11:57:59;4.95;;;2.03;;
16531;SDS011;8378;57.698;11.958;2022-10-30T12:00:35;4.38;;;1.95;;
16531;SDS011;8378;57.698;11.958;2022-10-30T12:03:02;5.72;;;2.33;;
16531;SDS011;8378;57.698;11.958;2022-10-30T12:05:37;8.00;;;2.50;;
16531;SDS011;8378;57.698;11.958;2022-10-30T12:10:33;3.95;;;2.20;;
16531;SDS011;8378;57.698;11.958;2022-10-30T12:13:06;5.88;;;2.20;;
16531;SDS011;8378;57.698;11.958;2022-10-30T12:15:45;5.05;;;2.10;;
16531;SDS011;8378;57.698;11.958;2022-10-30T12:18:17;3.25;;;1.92;;
16531;SDS011;8378;57.698;11.958;2022-10-30T12:20:48;4.63;;;2.17;;
16531;SDS011;8378;57.698;11.958;2022-10-30T12:23:25;5.43;;;2.38;;
16531;SDS011;8378;57.698;11.958;2022-10-30T12:26:14;4.00;;;2.10;;
16531;SDS011;8378;57.698;11.958;2022-10-30T12:28:39;4.22;;;2.05;;
16531;SDS011;8378;57.698;11.958;2022-10-30T12:31:29;3.85;;;2.10;;
16531;SDS011;8378;57.698;11.958;2022-10-30T12:34:22;5.13;;;2.20;;
16531;SDS011;8378;57.698;11.958;2022-10-30T12:37:02;6.40;;;2.10;;
16531;SDS011;8378;57.698;11.958;2022-10-30T12:39:53;5.78;;;1.90;;
16531;SDS011;8378;57.698;11.958;2022-10-30T12:42:27;4.43;;;2.17;;
16531;SDS011;8378;57.698;11.958;2022-10-30T12:46:01;4.18;;;2.00;;
16531;SDS011;8378;57.698;11.958;2022-10-30T12:48:08;8.73;;;2.25;;
16531;SDS011;8378;57.698;11.958;2022-10-30T12:53:29;5.25;;;2.35;;
16531;SDS011;8378;57.698;11.958;2022-10-30T12:56:08;5.38;;;1.95;;
16531;SDS011;8378;57.698;11.958;2022-10-30T12:58:50;4.63;;;2.10;;
16531;SDS011;8378;57.698;11.958;2022-10-30T13:01:28;4.57;;;2.30;;
16531;SDS011;8378;57.698;11.958;2022-10-30T13:04:21;5.88;;;1.90;;
16531;SDS011;8378;57.698;11.958;2022-10-30T13:06:51;5.03;;;2.10;;
16531;SDS011;8378;57.698;11.958;2022-10-30T13:09:41;5.90;;;2.38;;
16531;SDS011;8378;57.698;11.958;2022-10-30T13:12:14;4.15;;;2.00;;
16531;SDS011;8378;57.698;11.958;2022-10-30T13:14:44;6.47;;;2.22;;
16531;SDS011;8378;57.698;11.958;2022-10-30T13:17:16;5.07;;;2.22;;
16531;SDS011;8378;57.698;11.958;2022-10-30T13:19:43;3.90;;;2.10;;
16531;SDS011;8378;57.698;11.958;2022-10-30T13:27:35;4.05;;;2.00;;
16531;SDS011;8378;57.698;11.958;2022-10-30T13:30:22;5.88;;;2.28;;
16531;SDS011;8378;57.698;11.958;2022-10-30T13:35:31;3.72;;;1.95;;
16531;SDS011;8378;57.698;11.958;2022-10-30T13:41:10;3.70;;;1.70;;
16531;SDS011;8378;57.698;11.958;2022-10-30T13:52:47;5.15;;;2.25;;
16531;SDS011;8378;57.698;11.958;2022-10-30T13:55:20;4.30;;;2.10;;
16531;SDS011;8378;57.698;11.958;2022-10-30T13:58:13;5.63;;;2.20;;
16531;SDS011;8378;57.698;11.958;2022-10-30T14:11:41;3.33;;;1.73;;
16531;SDS011;8378;57.698;11.958;2022-10-30T14:17:03;2.65;;;1.77;;
16531;SDS011;8378;57.698;11.958;2022-10-30T14:19:58;3.28;;;1.95;;
16531;SDS011;8378;57.698;11.958;2022-10-30T14:22:32;3.03;;;1.80;;
16531;SDS011;8378;57.698;11.958;2022-10-30T14:24:59;2.50;;;1.73;;
16531;SDS011;8378;57.698;11.958;2022-10-30T14:27:29;2.92;;;1.67;;
16531;SDS011;8378;57.698;11.958;2022-10-30T14:29:56;3.95;;;1.90;;
16531;SDS011;8378;57.698;11.958;2022-10-30T14:39:51;2.97;;;1.90;;
16531;SDS011;8378;57.698;11.958;2022-10-30T14:44:58;1.85;;;1.30;;
16531;SDS011;8378;57.698;11.958;2022-10-30T14:52:59;2.60;;;1.40;;
16531;SDS011;8378;57.698;11.958;2022-10-30T14:58:38;2.03;;;1.50;;
16531;SDS011;8378;57.698;11.958;2022-10-30T15:04:06;1.88;;;1.45;;
16531;SDS011;8378;57.698;11.958;2022-10-30T15:06:42;2.35;;;1.50;;
16531;SDS011;8378;57.698;11.958;2022-10-30T15:09:21;2.40;;;1.50;;
16531;SDS011;8378;57.698;11.958;2022-10-30T15:14:39;1.90;;;1.48;;
16531;SDS011;8378;57.698;11.958;2022-10-30T15:17:20;2.10;;;1.50;;
16531;SDS011;8378;57.698;11.958;2022-10-30T15:19:51;1.95;;;1.50;;
16531;SDS011;8378;57.698;11.958;2022-10-30T15:22:18;1.33;;;1.23;;
16531;SDS011;8378;57.698;11.958;2022-10-30T15:24:47;1.58;;;1.42;;
16531;SDS011;8378;57.698;11.958;2022-10-30T15:27:18;1.50;;;1.25;;
16531;SDS011;8378;57.698;11.958;2022-10-30T15:29:50;2.28;;;1.45;;
16531;SDS011;8378;57.698;11.958;2022-10-30T15:32:21;2.17;;;1.48;;
16531;SDS011;8378;57.698;11.958;2022-10-30T15:34:58;2.15;;;1.30;;
16531;SDS011;8378;57.698;11.958;2022-10-30T15:37:29;3.25;;;1.33;;
16531;SDS011;8378;57.698;11.958;2022-10-30T15:42:42;2.63;;;1.40;;
16531;SDS011;8378;57.698;11.958;2022-10-30T15:45:20;2.22;;;1.42;;
16531;SDS011;8378;57.698;11.958;2022-10-30T15:48:06;2.05;;;1.40;;
16531;SDS011;8378;57.698;11.958;2022-10-30T15:50:33;4.32;;;2.03;;
16531;SDS011;8378;57.698;11.958;2022-10-30T15:53:00;4.10;;;2.45;;
16531;SDS011;8378;57.698;11.958;2022-10-30T15:55:27;13.70;;;7.35;;
16531;SDS011;8378;57.698;11.958;2022-10-30T15:57:56;20.98;;;9.20;;
16531;SDS011;8378;57.698;11.958;2022-10-30T16:00:26;11.50;;;5.97;;
16531;SDS011;8378;57.698;11.958;2022-10-30T16:03:01;13.95;;;6.47;;
16531;SDS011;8378;57.698;11.958;2022-10-30T16:05:29;17.73;;;8.10;;
16531;SDS011;8378;57.698;11.958;2022-10-30T16:07:56;14.88;;;7.35;;
16531;SDS011;8378;57.698;11.958;2022-10-30T16:10:23;18.45;;;8.00;;
16531;SDS011;8378;57.698;11.958;2022-10-30T16:12:51;17.65;;;7.65;;
16531;SDS011;8378;57.698;11.958;2022-10-30T16:15:32;19.13;;;8.60;;
16531;SDS011;8378;57.698;11.958;2022-10-30T16:20:51;16.42;;;7.97;;
16531;SDS011;8378;57.698;11.958;2022-10-30T16:23:21;18.50;;;7.95;;
16531;SDS011;8378;57.698;11.958;2022-10-30T16:25:55;15.70;;;7.40;;
16531;SDS011;8378;57.698;11.958;2022-10-30T16:28:30;13.80;;;7.70;;
16531;SDS011;8378;57.698;11.958;2022-10-30T16:30:58;11.05;;;6.35;;
16531;SDS011;8378;57.698;11.958;2022-10-30T16:33:27;14.20;;;6.97;;
16531;SDS011;8378;57.698;11.958;2022-10-30T16:35:54;11.77;;;6.25;;
16531;SDS011;8378;57.698;11.958;2022-10-30T16:38:21;12.52;;;6.38;;
16531;SDS011;8378;57.698;11.958;2022-10-30T16:40:48;12.00;;;6.60;;
16531;SDS011;8378;57.698;11.958;2022-10-30T16:43:28;10.85;;;5.72;;
16531;SDS011;8378;57.698;11.958;2022-10-30T16:48:38;10.35;;;5.22;;
16531;SDS011;8378;57.698;11.958;2022-10-30T16:51:12;10.52;;;5.43;;
16531;SDS011;8378;57.698;11.958;2022-10-30T16:53:44;10.88;;;5.65;;
16531;SDS011;8378;57.698;11.958;2022-10-30T16:56:25;15.95;;;5.30;;
16531;SDS011;8378;57.698;11.958;2022-10-30T16:58:53;7.88;;;4.95;;
16531;SDS011;8378;57.698;11.958;2022-10-30T17:01:37;14.35;;;5.95;;
16531;SDS011;8378;57.698;11.958;2022-10-30T17:04:03;12.70;;;5.40;;
16531;SDS011;8378;57.698;11.958;2022-10-30T17:06:39;11.23;;;5.43;;
16531;SDS011;8378;57.698;11.958;2022-10-30T17:09:32;11.52;;;5.05;;